sensor_id;sensor_type;location;lat;lon;timestamp;P1;durP1;ratioP1;P2;durP2;ratioP2
77152;SDS011;66124;51.146;17.072;2023-08-07T00:09:18;4.90;;;2.40;;
77152;SDS011;66124;51.146;17.072;2023-08-07T00:11:47;4.40;;;1.90;;
77152;SDS011;66124;51.146;17.072;2023-08-07T00:14:17;2.60;;;2.00;;
77152;SDS011;66124;51.146;17.072;2023-08-07T00:16:46;2.30;;;1.90;;
77152;SDS011;66124;51.146;17.072;2023-08-07T00:19:16;2.00;;;1.80;;
77152;SDS011;66124;51.146;17.072;2023-08-07T00:21:47;2.00;;;1.60;;
77152;SDS011;66124;51.146;17.072;2023-08-07T00:24:16;2.20;;;1.70;;
77152;SDS011;66124;51.146;17.072;2023-08-07T00:26:45;5.70;;;2.60;;
77152;SDS011;66124;51.146;17.072;2023-08-07T00:29:15;2.20;;;1.60;;
77152;SDS011;66124;51.146;17.072;2023-08-07T00:31:44;3.90;;;2.20;;
77152;SDS011;66124;51.146;17.072;2023-08-07T00:34:14;3.60;;;1.80;;
77152;SDS011;66124;51.146;17.072;2023-08-07T00:36:43;2.70;;;1.90;;
77152;SDS011;66124;51.146;17.072;2023-08-07T00:39:13;2.30;;;1.90;;
77152;SDS011;66124;51.146;17.072;2023-08-07T00:41:42;2.80;;;1.90;;
77152;SDS011;66124;51.146;17.072;2023-08-07T00:44:12;2.30;;;1.70;;
77152;SDS011;66124;51.146;17.072;2023-08-07T00:46:42;2.60;;;1.60;;
77152;SDS011;66124;51.146;17.072;2023-08-07T00:49:11;1.90;;;1.70;;
77152;SDS011;66124;51.146;17.072;2023-08-07T00:51:41;2.80;;;1.90;;
77152;SDS011;66124;51.146;17.072;2023-08-07T00:54:11;2.30;;;1.60;;
77152;SDS011;66124;51.146;17.072;2023-08-07T00:56:42;2.30;;;1.90;;
77152;SDS011;66124;51.146;17.072;2023-08-07T00:59:12;2.70;;;2.00;;
77152;SDS011;66124;51.146;17.072;2023-08-07T01:01:42;2.60;;;2.00;;
77152;SDS011;66124;51.146;17.072;2023-08-07T01:04:11;3.70;;;1.80;;
77152;SDS011;66124;51.146;17.072;2023-08-07T01:06:41;2.60;;;1.70;;
77152;SDS011;66124;51.146;17.072;2023-08-07T01:09:11;3.20;;;1.90;;
77152;SDS011;66124;51.146;17.072;2023-08-07T01:11:43;3.20;;;2.00;;
77152;SDS011;66124;51.146;17.072;2023-08-07T01:14:18;2.50;;;1.60;;
77152;SDS011;66124;51.146;17.072;2023-08-07T01:16:56;2.50;;;2.50;;
77152;SDS011;66124;51.146;17.072;2023-08-07T01:19:29;2.10;;;1.40;;
77152;SDS011;66124;51.146;17.072;2023-08-07T01:31:53;2.30;;;1.90;;
77152;SDS011;66124;51.146;17.072;2023-08-07T01:34:25;2.40;;;1.90;;
77152;SDS011;66124;51.146;17.072;2023-08-07T01:36:55;3.40;;;2.30;;
77152;SDS011;66124;51.146;17.072;2023-08-07T01:39:28;2.30;;;1.70;;
77152;SDS011;66124;51.146;17.072;2023-08-07T01:41:58;2.40;;;2.20;;
77152;SDS011;66124;51.146;17.072;2023-08-07T01:44:28;2.90;;;2.30;;
77152;SDS011;66124;51.146;17.072;2023-08-07T01:46:58;3.30;;;2.20;;
77152;SDS011;66124;51.146;17.072;2023-08-07T01:49:27;2.60;;;2.10;;
77152;SDS011;66124;51.146;17.072;2023-08-07T01:51:57;3.30;;;2.10;;
77152;SDS011;66124;51.146;17.072;2023-08-07T01:54:26;3.60;;;2.20;;
77152;SDS011;66124;51.146;17.072;2023-08-07T01:56:56;4.00;;;2.30;;
77152;SDS011;66124;51.146;17.072;2023-08-07T01:59:25;2.90;;;2.60;;
77152;SDS011;66124;51.146;17.072;2023-08-07T02:01:55;3.80;;;2.30;;
77152;SDS011;66124;51.146;17.072;2023-08-07T02:04:25;3.80;;;2.30;;
77152;SDS011;66124;51.146;17.072;2023-08-07T02:06:54;3.40;;;2.30;;
77152;SDS011;66124;51.146;17.072;2023-08-07T02:09:24;3.00;;;2.30;;
77152;SDS011;66124;51.146;17.072;2023-08-07T02:11:53;3.10;;;2.10;;
77152;SDS011;66124;51.146;17.072;2023-08-07T02:14:23;5.10;;;2.20;;
77152;SDS011;66124;51.146;17.072;2023-08-07T02:16:52;2.30;;;1.70;;
77152;SDS011;66124;51.146;17.072;2023-08-07T02:19:21;3.60;;;1.80;;
77152;SDS011;66124;51.146;17.072;2023-08-07T02:21:51;3.60;;;2.20;;
77152;SDS011;66124;51.146;17.072;2023-08-07T02:24:20;3.00;;;1.90;;
77152;SDS011;66124;51.146;17.072;2023-08-07T02:26:50;2.70;;;2.30;;
77152;SDS011;66124;51.146;17.072;2023-08-07T02:29:19;2.70;;;1.90;;
77152;SDS011;66124;51.146;17.072;2023-08-07T02:31:48;4.70;;;2.40;;
77152;SDS011;66124;51.146;17.072;2023-08-07T02:34:18;2.90;;;2.10;;
77152;SDS011;66124;51.146;17.072;2023-08-07T02:36:47;2.70;;;2.20;;
77152;SDS011;66124;51.146;17.072;2023-08-07T02:39:17;3.00;;;1.90;;
77152;SDS011;66124;51.146;17.072;2023-08-07T02:46:08;2.60;;;1.90;;
77152;SDS011;66124;51.146;17.072;2023-08-07T02:48:37;2.30;;;1.60;;
77152;SDS011;66124;51.146;17.072;2023-08-07T02:51:07;2.30;;;1.70;;
77152;SDS011;66124;51.146;17.072;2023-08-07T02:53:36;2.40;;;1.60;;
77152;SDS011;66124;51.146;17.072;2023-08-07T02:56:06;2.00;;;1.70;;
77152;SDS011;66124;51.146;17.072;2023-08-07T02:58:36;3.40;;;1.80;;
77152;SDS011;66124;51.146;17.072;2023-08-07T03:01:06;2.40;;;2.00;;
77152;SDS011;66124;51.146;17.072;2023-08-07T03:03:35;2.60;;;1.80;;
77152;SDS011;66124;51.146;17.072;2023-08-07T03:06:05;4.20;;;1.80;;
77152;SDS011;66124;51.146;17.072;2023-08-07T03:08:34;2.80;;;1.90;;
77152;SDS011;66124;51.146;17.072;2023-08-07T03:11:03;2.50;;;1.50;;
77152;SDS011;66124;51.146;17.072;2023-08-07T03:13:33;2.70;;;2.10;;
77152;SDS011;66124;51.146;17.072;2023-08-07T03:16:02;3.40;;;1.80;;
77152;SDS011;66124;51.146;17.072;2023-08-07T03:18:33;9.80;;;2.10;;
77152;SDS011;66124;51.146;17.072;2023-08-07T03:21:03;2.50;;;1.70;;
77152;SDS011;66124;51.146;17.072;2023-08-07T03:23:32;4.10;;;2.20;;
77152;SDS011;66124;51.146;17.072;2023-08-07T03:26:05;2.30;;;1.60;;
77152;SDS011;66124;51.146;17.072;2023-08-07T03:28:35;3.80;;;2.30;;
77152;SDS011;66124;51.146;17.072;2023-08-07T03:31:05;3.10;;;2.20;;
77152;SDS011;66124;51.146;17.072;2023-08-07T03:33:35;3.00;;;1.80;;
77152;SDS011;66124;51.146;17.072;2023-08-07T03:36:04;5.10;;;2.50;;
77152;SDS011;66124;51.146;17.072;2023-08-07T03:38:34;2.70;;;1.90;;
77152;SDS011;66124;51.146;17.072;2023-08-07T03:41:03;3.00;;;2.00;;
77152;SDS011;66124;51.146;17.072;2023-08-07T03:43:33;2.90;;;2.10;;
77152;SDS011;66124;51.146;17.072;2023-08-07T03:46:02;3.50;;;2.20;;
77152;SDS011;66124;51.146;17.072;2023-08-07T03:48:31;3.10;;;2.20;;
77152;SDS011;66124;51.146;17.072;2023-08-07T03:51:04;2.80;;;2.10;;
77152;SDS011;66124;51.146;17.072;2023-08-07T03:53:35;2.80;;;2.50;;
77152;SDS011;66124;51.146;17.072;2023-08-07T03:56:05;5.20;;;2.20;;
77152;SDS011;66124;51.146;17.072;2023-08-07T04:06:15;2.70;;;1.90;;
77152;SDS011;66124;51.146;17.072;2023-08-07T04:08:46;2.80;;;1.90;;
77152;SDS011;66124;51.146;17.072;2023-08-07T04:11:15;4.00;;;2.00;;
77152;SDS011;66124;51.146;17.072;2023-08-07T04:13:45;7.70;;;2.20;;
77152;SDS011;66124;51.146;17.072;2023-08-07T04:16:14;3.80;;;2.30;;
77152;SDS011;66124;51.146;17.072;2023-08-07T04:18:43;2.50;;;2.20;;
77152;SDS011;66124;51.146;17.072;2023-08-07T04:21:13;4.50;;;2.40;;
77152;SDS011;66124;51.146;17.072;2023-08-07T04:23:42;4.60;;;2.50;;
77152;SDS011;66124;51.146;17.072;2023-08-07T04:26:11;3.20;;;2.40;;
77152;SDS011;66124;51.146;17.072;2023-08-07T04:28:41;6.40;;;2.50;;
77152;SDS011;66124;51.146;17.072;2023-08-07T04:31:10;3.30;;;2.50;;
77152;SDS011;66124;51.146;17.072;2023-08-07T04:33:40;4.30;;;2.90;;
77152;SDS011;66124;51.146;17.072;2023-08-07T04:36:09;4.20;;;2.60;;
77152;SDS011;66124;51.146;17.072;2023-08-07T04:38:39;2.70;;;2.30;;
77152;SDS011;66124;51.146;17.072;2023-08-07T04:41:08;3.80;;;2.30;;
77152;SDS011;66124;51.146;17.072;2023-08-07T04:43:37;4.00;;;2.80;;
77152;SDS011;66124;51.146;17.072;2023-08-07T04:46:07;3.90;;;2.50;;
77152;SDS011;66124;51.146;17.072;2023-08-07T04:48:36;4.70;;;2.30;;
77152;SDS011;66124;51.146;17.072;2023-08-07T04:51:06;3.70;;;2.10;;
77152;SDS011;66124;51.146;17.072;2023-08-07T04:53:35;4.70;;;2.50;;
77152;SDS011;66124;51.146;17.072;2023-08-07T04:56:04;2.90;;;2.40;;
77152;SDS011;66124;51.146;17.072;2023-08-07T04:58:34;2.90;;;2.30;;
77152;SDS011;66124;51.146;17.072;2023-08-07T05:01:03;3.90;;;2.30;;
77152;SDS011;66124;51.146;17.072;2023-08-07T05:03:33;4.70;;;2.50;;
77152;SDS011;66124;51.146;17.072;2023-08-07T05:06:02;4.80;;;2.20;;
77152;SDS011;66124;51.146;17.072;2023-08-07T05:08:32;4.30;;;2.80;;
77152;SDS011;66124;51.146;17.072;2023-08-07T05:11:01;3.10;;;2.30;;
77152;SDS011;66124;51.146;17.072;2023-08-07T05:13:31;3.20;;;1.90;;
77152;SDS011;66124;51.146;17.072;2023-08-07T05:16:00;3.70;;;2.40;;
77152;SDS011;66124;51.146;17.072;2023-08-07T05:26:06;3.20;;;2.50;;
77152;SDS011;66124;51.146;17.072;2023-08-07T05:28:36;4.60;;;2.60;;
77152;SDS011;66124;51.146;17.072;2023-08-07T05:31:05;2.60;;;2.20;;
77152;SDS011;66124;51.146;17.072;2023-08-07T05:33:35;3.10;;;2.00;;
77152;SDS011;66124;51.146;17.072;2023-08-07T05:36:04;2.80;;;2.20;;
77152;SDS011;66124;51.146;17.072;2023-08-07T05:38:35;3.20;;;2.40;;
77152;SDS011;66124;51.146;17.072;2023-08-07T05:41:04;3.40;;;2.30;;
77152;SDS011;66124;51.146;17.072;2023-08-07T05:43:34;3.90;;;2.20;;
77152;SDS011;66124;51.146;17.072;2023-08-07T05:46:03;2.30;;;2.00;;
77152;SDS011;66124;51.146;17.072;2023-08-07T05:48:33;2.80;;;2.10;;
77152;SDS011;66124;51.146;17.072;2023-08-07T05:51:02;3.10;;;2.10;;
77152;SDS011;66124;51.146;17.072;2023-08-07T05:53:32;4.70;;;2.40;;
77152;SDS011;66124;51.146;17.072;2023-08-07T05:56:02;3.40;;;2.10;;
77152;SDS011;66124;51.146;17.072;2023-08-07T05:58:32;4.00;;;2.10;;
77152;SDS011;66124;51.146;17.072;2023-08-07T06:01:01;2.90;;;2.20;;
77152;SDS011;66124;51.146;17.072;2023-08-07T06:03:31;3.20;;;1.70;;
77152;SDS011;66124;51.146;17.072;2023-08-07T06:06:00;4.80;;;2.60;;
77152;SDS011;66124;51.146;17.072;2023-08-07T06:08:30;2.10;;;1.60;;
77152;SDS011;66124;51.146;17.072;2023-08-07T06:10:59;3.10;;;1.60;;
77152;SDS011;66124;51.146;17.072;2023-08-07T06:13:29;3.80;;;2.10;;
77152;SDS011;66124;51.146;17.072;2023-08-07T06:15:58;5.60;;;2.10;;
77152;SDS011;66124;51.146;17.072;2023-08-07T06:18:28;3.40;;;2.40;;
77152;SDS011;66124;51.146;17.072;2023-08-07T06:20:57;2.90;;;1.70;;
77152;SDS011;66124;51.146;17.072;2023-08-07T06:23:27;4.40;;;2.70;;
77152;SDS011;66124;51.146;17.072;2023-08-07T06:25:56;3.00;;;1.60;;
77152;SDS011;66124;51.146;17.072;2023-08-07T06:28:25;3.30;;;2.00;;
77152;SDS011;66124;51.146;17.072;2023-08-07T06:31:01;2.70;;;2.20;;
77152;SDS011;66124;51.146;17.072;2023-08-07T06:33:30;3.70;;;1.90;;
77152;SDS011;66124;51.146;17.072;2023-08-07T06:46:29;3.70;;;2.20;;
77152;SDS011;66124;51.146;17.072;2023-08-07T06:48:56;3.10;;;2.40;;
77152;SDS011;66124;51.146;17.072;2023-08-07T06:51:24;2.60;;;2.10;;
77152;SDS011;66124;51.146;17.072;2023-08-07T06:53:51;3.00;;;2.20;;
77152;SDS011;66124;51.146;17.072;2023-08-07T06:56:18;3.20;;;2.00;;
77152;SDS011;66124;51.146;17.072;2023-08-07T06:58:46;3.00;;;2.40;;
77152;SDS011;66124;51.146;17.072;2023-08-07T07:01:13;2.70;;;1.90;;
77152;SDS011;66124;51.146;17.072;2023-08-07T07:03:41;5.80;;;2.10;;
77152;SDS011;66124;51.146;17.072;2023-08-07T07:06:08;1.20;;;0.90;;
77152;SDS011;66124;51.146;17.072;2023-08-07T07:16:11;2.60;;;1.70;;
77152;SDS011;66124;51.146;17.072;2023-08-07T07:18:41;2.70;;;1.70;;
77152;SDS011;66124;51.146;17.072;2023-08-07T07:21:10;2.10;;;1.70;;
77152;SDS011;66124;51.146;17.072;2023-08-07T07:23:39;2.70;;;1.50;;
77152;SDS011;66124;51.146;17.072;2023-08-07T07:26:09;2.90;;;1.70;;
77152;SDS011;66124;51.146;17.072;2023-08-07T07:28:40;3.10;;;1.90;;
77152;SDS011;66124;51.146;17.072;2023-08-07T07:31:09;3.60;;;1.70;;
77152;SDS011;66124;51.146;17.072;2023-08-07T07:33:38;2.50;;;1.50;;
77152;SDS011;66124;51.146;17.072;2023-08-07T07:36:12;1.40;;;1.30;;
77152;SDS011;66124;51.146;17.072;2023-08-07T07:38:42;3.10;;;1.90;;
77152;SDS011;66124;51.146;17.072;2023-08-07T07:41:12;1.90;;;1.70;;
77152;SDS011;66124;51.146;17.072;2023-08-07T07:43:42;3.00;;;2.00;;
77152;SDS011;66124;51.146;17.072;2023-08-07T07:46:12;3.00;;;1.50;;
77152;SDS011;66124;51.146;17.072;2023-08-07T07:48:41;3.00;;;1.70;;
77152;SDS011;66124;51.146;17.072;2023-08-07T07:51:10;2.00;;;1.40;;
77152;SDS011;66124;51.146;17.072;2023-08-07T07:53:40;2.70;;;1.70;;
77152;SDS011;66124;51.146;17.072;2023-08-07T07:56:09;2.00;;;1.60;;
77152;SDS011;66124;51.146;17.072;2023-08-07T07:58:39;1.80;;;1.50;;
77152;SDS011;66124;51.146;17.072;2023-08-07T08:01:08;2.60;;;1.50;;
77152;SDS011;66124;51.146;17.072;2023-08-07T08:03:37;2.40;;;1.40;;
77152;SDS011;66124;51.146;17.072;2023-08-07T08:06:07;3.20;;;1.80;;
77152;SDS011;66124;51.146;17.072;2023-08-07T08:08:36;2.80;;;1.70;;
77152;SDS011;66124;51.146;17.072;2023-08-07T08:11:06;2.20;;;1.50;;
77152;SDS011;66124;51.146;17.072;2023-08-07T08:13:35;1.90;;;1.60;;
77152;SDS011;66124;51.146;17.072;2023-08-07T08:16:05;3.90;;;1.30;;
77152;SDS011;66124;51.146;17.072;2023-08-07T08:18:34;2.60;;;1.50;;
77152;SDS011;66124;51.146;17.072;2023-08-07T08:21:04;2.50;;;1.50;;
77152;SDS011;66124;51.146;17.072;2023-08-07T08:23:33;1.20;;;1.10;;
77152;SDS011;66124;51.146;17.072;2023-08-07T08:26:02;2.30;;;2.10;;
77152;SDS011;66124;51.146;17.072;2023-08-07T08:41:37;2.80;;;2.10;;
77152;SDS011;66124;51.146;17.072;2023-08-07T08:44:06;2.80;;;1.90;;
77152;SDS011;66124;51.146;17.072;2023-08-07T08:46:38;3.00;;;2.00;;
77152;SDS011;66124;51.146;17.072;2023-08-07T08:49:09;2.30;;;1.80;;
77152;SDS011;66124;51.146;17.072;2023-08-07T08:51:44;2.80;;;1.90;;
77152;SDS011;66124;51.146;17.072;2023-08-07T08:54:15;4.00;;;2.10;;
77152;SDS011;66124;51.146;17.072;2023-08-07T08:56:45;2.50;;;1.90;;
77152;SDS011;66124;51.146;17.072;2023-08-07T08:59:15;3.60;;;2.10;;
77152;SDS011;66124;51.146;17.072;2023-08-07T09:01:44;2.20;;;2.00;;
77152;SDS011;66124;51.146;17.072;2023-08-07T09:04:14;3.70;;;1.90;;
77152;SDS011;66124;51.146;17.072;2023-08-07T09:06:44;1.90;;;1.60;;
77152;SDS011;66124;51.146;17.072;2023-08-07T09:09:14;2.80;;;2.20;;
77152;SDS011;66124;51.146;17.072;2023-08-07T09:11:45;2.30;;;2.10;;
77152;SDS011;66124;51.146;17.072;2023-08-07T09:14:17;3.40;;;2.50;;
77152;SDS011;66124;51.146;17.072;2023-08-07T09:16:48;3.80;;;2.00;;
77152;SDS011;66124;51.146;17.072;2023-08-07T09:19:18;2.70;;;2.10;;
77152;SDS011;66124;51.146;17.072;2023-08-07T09:21:48;2.80;;;1.90;;
77152;SDS011;66124;51.146;17.072;2023-08-07T09:24:18;2.60;;;1.90;;
77152;SDS011;66124;51.146;17.072;2023-08-07T09:26:47;3.10;;;2.40;;
77152;SDS011;66124;51.146;17.072;2023-08-07T09:29:18;2.20;;;1.90;;
77152;SDS011;66124;51.146;17.072;2023-08-07T09:31:48;2.70;;;2.20;;
77152;SDS011;66124;51.146;17.072;2023-08-07T09:34:20;2.90;;;2.40;;
77152;SDS011;66124;51.146;17.072;2023-08-07T09:36:50;4.40;;;2.40;;
77152;SDS011;66124;51.146;17.072;2023-08-07T09:39:20;2.70;;;2.20;;
77152;SDS011;66124;51.146;17.072;2023-08-07T09:41:52;2.50;;;2.30;;
77152;SDS011;66124;51.146;17.072;2023-08-07T09:44:21;2.60;;;1.80;;
77152;SDS011;66124;51.146;17.072;2023-08-07T09:46:51;2.90;;;2.00;;
77152;SDS011;66124;51.146;17.072;2023-08-07T09:49:20;1.40;;;1.30;;
77152;SDS011;66124;51.146;17.072;2023-08-07T10:01:02;3.10;;;1.30;;
77152;SDS011;66124;51.146;17.072;2023-08-07T10:03:32;2.60;;;1.30;;
77152;SDS011;66124;51.146;17.072;2023-08-07T10:06:02;3.10;;;1.30;;
77152;SDS011;66124;51.146;17.072;2023-08-07T10:08:31;2.00;;;1.70;;
77152;SDS011;66124;51.146;17.072;2023-08-07T10:11:02;3.70;;;1.80;;
77152;SDS011;66124;51.146;17.072;2023-08-07T10:16:15;2.50;;;1.50;;
77152;SDS011;66124;51.146;17.072;2023-08-07T10:18:44;3.30;;;1.80;;
77152;SDS011;66124;51.146;17.072;2023-08-07T10:21:14;2.30;;;1.70;;
77152;SDS011;66124;51.146;17.072;2023-08-07T10:23:44;3.00;;;1.70;;
77152;SDS011;66124;51.146;17.072;2023-08-07T10:26:14;1.60;;;1.50;;
77152;SDS011;66124;51.146;17.072;2023-08-07T10:28:44;2.00;;;1.40;;
77152;SDS011;66124;51.146;17.072;2023-08-07T10:31:14;2.50;;;1.60;;
77152;SDS011;66124;51.146;17.072;2023-08-07T10:33:44;1.90;;;1.30;;
77152;SDS011;66124;51.146;17.072;2023-08-07T10:36:15;3.00;;;1.50;;
77152;SDS011;66124;51.146;17.072;2023-08-07T10:38:50;2.60;;;1.20;;
77152;SDS011;66124;51.146;17.072;2023-08-07T10:41:37;2.00;;;1.20;;
77152;SDS011;66124;51.146;17.072;2023-08-07T10:44:17;2.90;;;1.80;;
77152;SDS011;66124;51.146;17.072;2023-08-07T10:46:48;1.90;;;1.20;;
77152;SDS011;66124;51.146;17.072;2023-08-07T10:49:32;2.00;;;1.20;;
77152;SDS011;66124;51.146;17.072;2023-08-07T10:52:08;1.40;;;1.30;;
77152;SDS011;66124;51.146;17.072;2023-08-07T10:54:40;1.80;;;1.20;;
77152;SDS011;66124;51.146;17.072;2023-08-07T10:57:14;1.90;;;1.60;;
77152;SDS011;66124;51.146;17.072;2023-08-07T10:59:48;1.20;;;1.10;;
77152;SDS011;66124;51.146;17.072;2023-08-07T11:02:23;1.50;;;1.10;;
77152;SDS011;66124;51.146;17.072;2023-08-07T11:04:54;1.90;;;1.30;;
77152;SDS011;66124;51.146;17.072;2023-08-07T11:07:24;2.80;;;1.60;;
77152;SDS011;66124;51.146;17.072;2023-08-07T11:09:55;2.50;;;1.30;;
77152;SDS011;66124;51.146;17.072;2023-08-07T11:12:26;1.60;;;1.20;;
77152;SDS011;66124;51.146;17.072;2023-08-07T11:14:56;2.10;;;1.30;;
77152;SDS011;66124;51.146;17.072;2023-08-07T11:17:26;2.40;;;1.20;;
77152;SDS011;66124;51.146;17.072;2023-08-07T11:19:56;1.20;;;1.10;;
77152;SDS011;66124;51.146;17.072;2023-08-07T11:22:26;2.50;;;1.30;;
77152;SDS011;66124;51.146;17.072;2023-08-07T11:24:56;1.90;;;1.20;;
77152;SDS011;66124;51.146;17.072;2023-08-07T11:27:25;1.10;;;1.10;;
77152;SDS011;66124;51.146;17.072;2023-08-07T11:36:12;2.30;;;1.50;;
77152;SDS011;66124;51.146;17.072;2023-08-07T11:38:40;2.20;;;1.70;;
77152;SDS011;66124;51.146;17.072;2023-08-07T11:41:10;2.00;;;1.80;;
77152;SDS011;66124;51.146;17.072;2023-08-07T11:43:39;1.50;;;1.30;;
77152;SDS011;66124;51.146;17.072;2023-08-07T11:46:08;2.60;;;1.40;;
77152;SDS011;66124;51.146;17.072;2023-08-07T11:48:37;2.90;;;1.70;;
77152;SDS011;66124;51.146;17.072;2023-08-07T11:51:06;1.80;;;1.60;;
77152;SDS011;66124;51.146;17.072;2023-08-07T11:56:02;1.90;;;1.40;;
77152;SDS011;66124;51.146;17.072;2023-08-07T12:20:38;2.00;;;1.40;;
77152;SDS011;66124;51.146;17.072;2023-08-07T12:23:13;4.20;;;1.40;;
77152;SDS011;66124;51.146;17.072;2023-08-07T12:25:43;2.10;;;1.60;;
77152;SDS011;66124;51.146;17.072;2023-08-07T12:28:14;1.70;;;1.00;;
77152;SDS011;66124;51.146;17.072;2023-08-07T12:30:45;2.20;;;1.30;;
77152;SDS011;66124;51.146;17.072;2023-08-07T12:35:43;2.50;;;1.40;;
77152;SDS011;66124;51.146;17.072;2023-08-07T12:38:13;2.00;;;1.30;;
77152;SDS011;66124;51.146;17.072;2023-08-07T12:40:43;2.70;;;1.30;;
77152;SDS011;66124;51.146;17.072;2023-08-07T12:43:12;2.20;;;1.30;;
77152;SDS011;66124;51.146;17.072;2023-08-07T12:45:42;4.10;;;1.40;;
77152;SDS011;66124;51.146;17.072;2023-08-07T12:48:11;1.10;;;1.00;;
77152;SDS011;66124;51.146;17.072;2023-08-07T12:50:41;1.80;;;1.40;;
77152;SDS011;66124;51.146;17.072;2023-08-07T12:53:10;3.10;;;1.20;;
77152;SDS011;66124;51.146;17.072;2023-08-07T12:55:40;1.30;;;1.10;;
77152;SDS011;66124;51.146;17.072;2023-08-07T12:58:09;2.10;;;1.00;;
77152;SDS011;66124;51.146;17.072;2023-08-07T13:00:39;1.40;;;1.20;;
77152;SDS011;66124;51.146;17.072;2023-08-07T13:03:08;1.20;;;1.00;;
77152;SDS011;66124;51.146;17.072;2023-08-07T13:05:38;1.60;;;1.10;;
77152;SDS011;66124;51.146;17.072;2023-08-07T13:08:07;1.40;;;0.90;;
77152;SDS011;66124;51.146;17.072;2023-08-07T13:10:37;1.50;;;1.20;;
77152;SDS011;66124;51.146;17.072;2023-08-07T13:13:06;2.60;;;1.10;;
77152;SDS011;66124;51.146;17.072;2023-08-07T13:15:36;1.20;;;1.00;;
77152;SDS011;66124;51.146;17.072;2023-08-07T13:18:06;1.90;;;1.20;;
77152;SDS011;66124;51.146;17.072;2023-08-07T13:20:35;1.70;;;1.10;;
77152;SDS011;66124;51.146;17.072;2023-08-07T13:23:05;1.20;;;1.10;;
77152;SDS011;66124;51.146;17.072;2023-08-07T13:25:34;2.10;;;1.50;;
77152;SDS011;66124;51.146;17.072;2023-08-07T13:28:04;1.40;;;1.30;;
77152;SDS011;66124;51.146;17.072;2023-08-07T13:30:34;1.20;;;1.10;;
77152;SDS011;66124;51.146;17.072;2023-08-07T13:40:48;1.50;;;1.20;;
77152;SDS011;66124;51.146;17.072;2023-08-07T13:43:18;1.70;;;1.10;;
77152;SDS011;66124;51.146;17.072;2023-08-07T13:45:47;1.70;;;1.00;;
77152;SDS011;66124;51.146;17.072;2023-08-07T13:48:17;1.40;;;1.00;;
77152;SDS011;66124;51.146;17.072;2023-08-07T13:50:46;1.40;;;1.10;;
77152;SDS011;66124;51.146;17.072;2023-08-07T13:53:16;1.20;;;1.10;;
77152;SDS011;66124;51.146;17.072;2023-08-07T13:55:47;2.80;;;1.30;;
77152;SDS011;66124;51.146;17.072;2023-08-07T13:58:17;1.50;;;1.10;;
77152;SDS011;66124;51.146;17.072;2023-08-07T14:00:46;2.60;;;1.20;;
77152;SDS011;66124;51.146;17.072;2023-08-07T14:03:15;1.70;;;1.10;;
77152;SDS011;66124;51.146;17.072;2023-08-07T14:05:45;1.90;;;1.10;;
77152;SDS011;66124;51.146;17.072;2023-08-07T14:08:15;1.80;;;1.40;;
77152;SDS011;66124;51.146;17.072;2023-08-07T14:10:45;1.60;;;1.00;;
77152;SDS011;66124;51.146;17.072;2023-08-07T14:13:15;1.20;;;1.10;;
77152;SDS011;66124;51.146;17.072;2023-08-07T14:15:45;1.70;;;1.40;;
77152;SDS011;66124;51.146;17.072;2023-08-07T14:18:14;2.30;;;1.00;;
77152;SDS011;66124;51.146;17.072;2023-08-07T14:20:44;1.50;;;1.30;;
77152;SDS011;66124;51.146;17.072;2023-08-07T14:23:13;1.90;;;1.10;;
77152;SDS011;66124;51.146;17.072;2023-08-07T14:25:43;1.60;;;0.90;;
77152;SDS011;66124;51.146;17.072;2023-08-07T14:28:12;0.90;;;0.80;;
77152;SDS011;66124;51.146;17.072;2023-08-07T14:30:42;1.60;;;1.10;;
77152;SDS011;66124;51.146;17.072;2023-08-07T14:33:11;2.00;;;1.40;;
77152;SDS011;66124;51.146;17.072;2023-08-07T14:35:41;2.20;;;1.00;;
77152;SDS011;66124;51.146;17.072;2023-08-07T14:38:10;2.30;;;1.20;;
77152;SDS011;66124;51.146;17.072;2023-08-07T14:40:40;2.00;;;1.30;;
77152;SDS011;66124;51.146;17.072;2023-08-07T14:43:09;1.70;;;1.10;;
77152;SDS011;66124;51.146;17.072;2023-08-07T14:45:38;1.30;;;1.00;;
77152;SDS011;66124;51.146;17.072;2023-08-07T14:48:08;2.00;;;1.00;;
77152;SDS011;66124;51.146;17.072;2023-08-07T14:56:12;1.60;;;0.80;;
77152;SDS011;66124;51.146;17.072;2023-08-07T14:58:41;0.80;;;0.70;;
77152;SDS011;66124;51.146;17.072;2023-08-07T15:01:11;1.50;;;0.80;;
77152;SDS011;66124;51.146;17.072;2023-08-07T15:03:40;1.20;;;0.70;;
77152;SDS011;66124;51.146;17.072;2023-08-07T15:06:10;2.10;;;0.60;;
77152;SDS011;66124;51.146;17.072;2023-08-07T15:08:40;1.80;;;0.70;;
77152;SDS011;66124;51.146;17.072;2023-08-07T15:11:09;1.40;;;0.70;;
77152;SDS011;66124;51.146;17.072;2023-08-07T15:13:39;0.90;;;0.60;;
77152;SDS011;66124;51.146;17.072;2023-08-07T15:16:09;0.50;;;0.50;;
77152;SDS011;66124;51.146;17.072;2023-08-07T15:18:39;2.10;;;0.80;;
77152;SDS011;66124;51.146;17.072;2023-08-07T15:21:09;0.50;;;0.50;;
77152;SDS011;66124;51.146;17.072;2023-08-07T15:23:38;0.80;;;0.60;;
77152;SDS011;66124;51.146;17.072;2023-08-07T15:26:08;2.40;;;0.70;;
77152;SDS011;66124;51.146;17.072;2023-08-07T15:28:37;1.60;;;0.70;;
77152;SDS011;66124;51.146;17.072;2023-08-07T15:31:08;0.90;;;0.70;;
77152;SDS011;66124;51.146;17.072;2023-08-07T15:33:38;1.00;;;0.70;;
77152;SDS011;66124;51.146;17.072;2023-08-07T15:36:07;2.50;;;0.70;;
77152;SDS011;66124;51.146;17.072;2023-08-07T15:38:37;3.60;;;0.80;;
77152;SDS011;66124;51.146;17.072;2023-08-07T15:41:07;0.60;;;0.50;;
77152;SDS011;66124;51.146;17.072;2023-08-07T15:43:37;1.30;;;0.70;;
77152;SDS011;66124;51.146;17.072;2023-08-07T15:46:07;1.20;;;0.70;;
77152;SDS011;66124;51.146;17.072;2023-08-07T15:48:36;0.70;;;0.70;;
77152;SDS011;66124;51.146;17.072;2023-08-07T15:51:06;0.70;;;0.60;;
77152;SDS011;66124;51.146;17.072;2023-08-07T15:53:36;1.00;;;0.60;;
77152;SDS011;66124;51.146;17.072;2023-08-07T15:56:05;1.50;;;0.80;;
77152;SDS011;66124;51.146;17.072;2023-08-07T15:58:35;1.90;;;0.60;;
77152;SDS011;66124;51.146;17.072;2023-08-07T16:01:05;0.80;;;0.70;;
77152;SDS011;66124;51.146;17.072;2023-08-07T16:03:34;0.60;;;0.50;;
77152;SDS011;66124;51.146;17.072;2023-08-07T16:06:04;0.40;;;0.40;;
77152;SDS011;66124;51.146;17.072;2023-08-07T16:18:34;1.50;;;0.70;;
77152;SDS011;66124;51.146;17.072;2023-08-07T16:21:04;0.90;;;0.70;;
77152;SDS011;66124;51.146;17.072;2023-08-07T16:23:33;0.60;;;0.60;;
77152;SDS011;66124;51.146;17.072;2023-08-07T16:26:03;0.90;;;0.70;;
77152;SDS011;66124;51.146;17.072;2023-08-07T16:28:32;3.00;;;0.80;;
77152;SDS011;66124;51.146;17.072;2023-08-07T16:31:03;0.60;;;0.60;;
77152;SDS011;66124;51.146;17.072;2023-08-07T16:33:32;1.10;;;0.60;;
77152;SDS011;66124;51.146;17.072;2023-08-07T16:36:02;1.00;;;0.80;;
77152;SDS011;66124;51.146;17.072;2023-08-07T16:38:32;1.30;;;0.60;;
77152;SDS011;66124;51.146;17.072;2023-08-07T16:41:02;0.60;;;0.60;;
77152;SDS011;66124;51.146;17.072;2023-08-07T16:43:31;1.70;;;0.80;;
77152;SDS011;66124;51.146;17.072;2023-08-07T16:46:01;0.90;;;0.50;;
77152;SDS011;66124;51.146;17.072;2023-08-07T16:48:31;0.30;;;0.30;;
77152;SDS011;66124;51.146;17.072;2023-08-07T16:51:00;0.40;;;0.40;;
77152;SDS011;66124;51.146;17.072;2023-08-07T16:53:30;0.90;;;0.30;;
77152;SDS011;66124;51.146;17.072;2023-08-07T16:55:59;0.70;;;0.30;;
77152;SDS011;66124;51.146;17.072;2023-08-07T16:58:29;0.40;;;0.40;;
77152;SDS011;66124;51.146;17.072;2023-08-07T17:00:58;1.10;;;0.60;;
77152;SDS011;66124;51.146;17.072;2023-08-07T17:03:28;0.40;;;0.40;;
77152;SDS011;66124;51.146;17.072;2023-08-07T17:05:57;0.40;;;0.40;;